Time;durP1;ratioP1;P1;durP2;ratioP2;P2;SDS_P1;SDS_P2;PMS_P1;PMS_P2;Temp;Humidity;BMP_temperature;BMP_pressure;BME280_temperature;BME280_humidity;BME280_pressure;Samples;Min_cycle;Max_cycle;Signal;HPM_P1;HPM_P2
2022/07/12 00:01:08;;;;;;;5.20;2.03;;;25.50;59.00;;;;;;4878445;29;20033;-85
2022/07/12 00:03:34;;;;;;;3.80;2.00;;;25.40;59.40;;;;;;4879146;29;20033;-85
2022/07/12 00:06:00;;;;;;;4.35;1.85;;;25.40;60.40;;;;;;4877443;29;20115;-85
2022/07/12 00:08:27;;;;;;;6.13;2.20;;;25.40;59.60;;;;;;4878378;29;20032;-85
2022/07/12 00:10:52;;;;;;;4.30;1.60;;;25.20;60.40;;;;;;4878555;29;20032;-85
2022/07/12 00:13:18;;;;;;;4.38;2.00;;;25.30;59.70;;;;;;4878744;29;20033;-85
2022/07/12 00:15:44;;;;;;;6.35;1.90;;;25.20;59.60;;;;;;4878478;29;20497;-85
2022/07/12 00:18:10;;;;;;;2.88;1.70;;;25.10;59.80;;;;;;4877948;29;20152;-85
2022/07/12 00:20:36;;;;;;;3.40;1.88;;;24.90;60.50;;;;;;4878373;29;20115;-85
2022/07/12 00:23:02;;;;;;;2.90;1.92;;;25.10;60.40;;;;;;4877826;29;20064;-85
2022/07/12 00:25:28;;;;;;;3.00;1.73;;;25.00;60.30;;;;;;4878874;29;20021;-84
2022/07/12 00:27:53;;;;;;;5.40;1.92;;;25.10;60.20;;;;;;4878462;29;20036;-85
2022/07/12 00:30:19;;;;;;;5.47;1.90;;;25.10;60.40;;;;;;4882814;29;20421;-85
2022/07/12 00:32:47;;;;;;;3.67;1.60;;;25.10;60.70;;;;;;4897073;29;20505;-85
2022/07/12 00:35:14;;;;;;;2.90;2.13;;;24.90;61.20;;;;;;4895914;29;20033;-85
2022/07/12 00:37:39;;;;;;;5.03;1.80;;;24.70;61.90;;;;;;4892427;29;20067;-84
2022/07/12 00:40:10;;;;;;;2.70;1.77;;;24.90;62.10;;;;;;4876991;29;20111;-85
2022/07/12 00:42:39;;;;;;;4.65;1.90;;;24.90;62.00;;;;;;4877209;29;20022;-84
2022/07/12 00:45:06;;;;;;;4.32;2.13;;;24.90;62.20;;;;;;4877266;29;20035;-84
2022/07/12 00:47:37;;;;;;;3.08;1.92;;;24.90;62.20;;;;;;4878477;29;20040;-84
2022/07/12 00:50:15;;;;;;;3.78;1.60;;;24.80;63.10;;;;;;4877569;29;20150;-84
2022/07/12 00:52:42;;;;;;;3.38;2.00;;;24.80;62.80;;;;;;4877872;29;20049;-84
2022/07/12 00:55:10;;;;;;;2.85;1.70;;;24.70;62.90;;;;;;4878371;29;20112;-84
2022/07/12 00:57:37;;;;;;;3.25;1.80;;;24.50;63.60;;;;;;4878100;29;20029;-84
2022/07/12 01:00:06;;;;;;;6.22;2.33;;;24.70;63.20;;;;;;4878084;29;20051;-84
2022/07/12 01:02:34;;;;;;;7.10;2.10;;;24.70;63.30;;;;;;4878628;29;20031;-84
2022/07/12 01:05:00;;;;;;;11.55;1.88;;;24.50;63.70;;;;;;4877789;29;20028;-84
2022/07/12 01:07:26;;;;;;;3.60;1.92;;;24.30;64.80;;;;;;4876252;29;20374;-85
2022/07/12 01:09:54;;;;;;;4.85;1.70;;;24.30;64.90;;;;;;4877657;29;20065;-84
2022/07/12 01:12:21;;;;;;;3.83;2.30;;;24.20;65.00;;;;;;4877731;29;20076;-84
2022/07/12 01:14:48;;;;;;;6.25;2.55;;;24.10;65.80;;;;;;4876705;29;20029;-85
2022/07/12 01:17:14;;;;;;;5.80;1.80;;;24.10;65.50;;;;;;4877848;29;20072;-85
2022/07/12 01:19:40;;;;;;;6.00;1.95;;;24.20;66.00;;;;;;4877820;29;20076;-84
2022/07/12 01:22:09;;;;;;;4.72;1.40;;;24.20;66.00;;;;;;4878583;29;20031;-85
2022/07/12 01:24:36;;;;;;;3.05;1.77;;;24.10;66.20;;;;;;4880100;29;20040;-85
2022/07/12 01:27:05;;;;;;;7.85;2.00;;;24.00;66.50;;;;;;4877628;29;20025;-85
2022/07/12 01:29:32;;;;;;;6.15;1.60;;;24.10;66.60;;;;;;4877929;29;20505;-84
2022/07/12 01:32:24;;;;;;;5.20;2.05;;;24.10;67.00;;;;;;4881013;29;20025;-85
2022/07/12 01:34:57;;;;;;;3.97;1.80;;;24.00;67.20;;;;;;4880850;29;20036;-85
2022/07/12 01:37:24;;;;;;;3.45;1.77;;;23.90;67.70;;;;;;4881487;29;20028;-85
2022/07/12 01:39:55;;;;;;;7.45;2.03;;;24.00;67.60;;;;;;4881386;29;20029;-85
2022/07/12 01:42:22;;;;;;;4.63;2.38;;;23.90;68.20;;;;;;4885353;29;20036;-85
2022/07/12 01:44:50;;;;;;;6.07;2.05;;;23.90;68.50;;;;;;4891501;29;20163;-85
2022/07/12 01:47:17;;;;;;;2.95;1.60;;;23.90;68.70;;;;;;4881229;29;20100;-84
2022/07/12 01:49:42;;;;;;;5.03;2.30;;;23.80;69.20;;;;;;4880732;29;20119;-85
2022/07/12 01:52:08;;;;;;;7.65;2.17;;;23.80;69.70;;;;;;4880846;29;20136;-84
2022/07/12 01:54:35;;;;;;;4.75;1.90;;;23.80;70.20;;;;;;4879848;29;20033;-85
2022/07/12 01:57:02;;;;;;;2.67;1.75;;;23.70;70.30;;;;;;4881020;29;20439;-85
2022/07/12 01:59:29;;;;;;;5.03;1.90;;;23.80;70.40;;;;;;4880588;29;20116;-85
2022/07/12 02:01:55;;;;;;;3.03;1.75;;;23.70;71.20;;;;;;4880551;29;20108;-85
2022/07/12 02:04:21;;;;;;;3.75;1.67;;;23.70;71.90;;;;;;4879784;29;20051;-85
2022/07/12 02:06:48;;;;;;;4.68;1.75;;;23.60;72.70;;;;;;4880681;29;20507;-85
2022/07/12 02:09:13;;;;;;;4.10;2.10;;;23.60;73.50;;;;;;4879278;29;20065;-85
2022/07/12 02:11:40;;;;;;;5.82;1.88;;;23.60;74.00;;;;;;4880465;29;20068;-85
2022/07/12 02:14:06;;;;;;;12.07;1.75;;;23.60;74.50;;;;;;4880576;29;20033;-84
2022/07/12 02:16:32;;;;;;;3.10;1.88;;;23.50;75.50;;;;;;4881154;29;20041;-84
2022/07/12 02:18:58;;;;;;;5.55;1.63;;;23.60;75.60;;;;;;4880228;29;20052;-84
2022/07/12 02:21:24;;;;;;;6.75;1.90;;;23.50;76.50;;;;;;4880439;29;20096;-84
2022/07/12 02:23:50;;;;;;;7.38;2.03;;;23.50;76.70;;;;;;4880305;29;20079;-84
2022/07/12 02:26:15;;;;;;;6.03;2.08;;;23.40;77.80;;;;;;4880340;29;20104;-84
2022/07/12 02:28:42;;;;;;;6.07;2.28;;;23.30;78.80;;;;;;4880836;29;20430;-84
2022/07/12 02:31:08;;;;;;;3.92;2.20;;;23.40;79.30;;;;;;4896067;29;20107;-84
2022/07/12 02:33:33;;;;;;;6.78;1.95;;;23.30;79.80;;;;;;4886496;29;20077;-85
2022/07/12 02:35:59;;;;;;;4.03;2.00;;;23.50;79.40;;;;;;4880155;29;20029;-84
2022/07/12 02:38:25;;;;;;;9.13;2.17;;;23.30;80.30;;;;;;4880708;29;20030;-84
2022/07/12 02:40:53;;;;;;;5.07;1.88;;;23.30;80.90;;;;;;4879985;29;20025;-84
2022/07/12 02:43:26;;;;;;;6.60;2.00;;;23.30;80.90;;;;;;4878612;29;20135;-84
2022/07/12 02:45:53;;;;;;;8.88;1.95;;;23.40;81.00;;;;;;4880288;29;20021;-84
2022/07/12 02:48:19;;;;;;;5.53;2.47;;;23.40;81.40;;;;;;4879541;29;20033;-84
2022/07/12 02:50:45;;;;;;;4.78;2.33;;;23.40;81.50;;;;;;4876159;29;20077;-84
2022/07/12 02:53:11;;;;;;;4.60;2.25;;;23.30;81.90;;;;;;4872607;29;20036;-84
2022/07/12 02:55:38;;;;;;;4.78;2.10;;;23.20;82.90;;;;;;4879611;29;20084;-84
2022/07/12 02:58:05;;;;;;;8.15;2.35;;;23.10;83.70;;;;;;4880023;29;20116;-84
2022/07/12 03:00:31;;;;;;;9.65;2.70;;;23.10;84.70;;;;;;4878704;29;20032;-84
2022/07/12 03:02:57;;;;;;;8.15;3.15;;;23.00;85.90;;;;;;4878025;29;20037;-84
2022/07/12 03:05:23;;;;;;;3.70;2.13;;;22.90;87.00;;;;;;4879821;29;20029;-84
2022/07/12 03:07:49;;;;;;;7.32;2.22;;;22.80;88.40;;;;;;4880183;29;20375;-85
2022/07/12 03:10:15;;;;;;;6.38;2.33;;;22.90;88.30;;;;;;4879065;29;20413;-84
2022/07/12 03:12:40;;;;;;;4.38;2.50;;;22.90;89.20;;;;;;4879958;29;20106;-84
2022/07/12 03:15:07;;;;;;;7.70;2.35;;;23.00;88.90;;;;;;4879651;29;20572;-84
2022/07/12 03:17:33;;;;;;;4.97;2.45;;;22.80;90.40;;;;;;4879140;29;20041;-84
2022/07/12 03:19:59;;;;;;;5.72;2.58;;;22.60;91.10;;;;;;4879482;29;20528;-85
2022/07/12 03:22:25;;;;;;;6.03;2.67;;;22.60;91.30;;;;;;4879477;29;20029;-84
2022/07/12 03:24:51;;;;;;;6.90;2.83;;;22.60;91.50;;;;;;4879536;29;20100;-85
2022/07/12 03:27:17;;;;;;;9.27;2.53;;;22.60;91.50;;;;;;4879578;29;20029;-84
2022/07/12 03:29:42;;;;;;;6.63;2.90;;;22.50;91.80;;;;;;4879618;29;20111;-84
2022/07/12 03:32:08;;;;;;;5.93;2.67;;;22.40;92.40;;;;;;4878868;29;20462;-84
2022/07/12 03:34:34;;;;;;;5.55;2.40;;;22.30;92.80;;;;;;4879307;29;20120;-84
2022/07/12 03:37:00;;;;;;;5.93;2.70;;;22.30;92.60;;;;;;4878945;29;20067;-84
2022/07/12 03:39:26;;;;;;;5.97;2.58;;;22.20;93.10;;;;;;4879606;29;20025;-84
2022/07/12 03:41:51;;;;;;;9.13;2.53;;;22.20;93.00;;;;;;4878939;29;20386;-84
2022/07/12 03:44:17;;;;;;;7.47;2.40;;;22.20;93.30;;;;;;4879217;29;20021;-84
2022/07/12 03:46:43;;;;;;;6.70;2.70;;;22.40;92.70;;;;;;4878083;29;20041;-84
2022/07/12 03:49:08;;;;;;;6.43;2.47;;;22.50;92.30;;;;;;4879216;29;20027;-84
2022/07/12 03:51:34;;;;;;;6.65;2.72;;;22.60;92.30;;;;;;4877304;29;20080;-84
2022/07/12 03:54:00;;;;;;;8.98;2.33;;;22.70;92.10;;;;;;4878347;29;20033;-84
2022/07/12 03:59:10;;;;;;;5.25;2.30;;;22.60;92.20;;;;;;4877367;29;20065;-84
2022/07/12 04:01:35;;;;;;;4.20;2.28;;;22.50;92.20;;;;;;4878918;29;20033;-85
2022/07/12 04:04:02;;;;;;;6.43;2.72;;;22.40;92.20;;;;;;4877404;29;20112;-85
2022/07/12 04:06:28;;;;;;;6.38;2.58;;;22.20;92.70;;;;;;4878969;29;20021;-85
2022/07/12 04:08:54;;;;;;;5.03;2.42;;;22.40;92.30;;;;;;4878780;29;20029;-85
2022/07/12 04:11:19;;;;;;;6.57;2.53;;;22.30;92.40;;;;;;4878517;29;20894;-85
2022/07/12 04:13:45;;;;;;;3.90;2.38;;;22.30;92.30;;;;;;4877095;29;20032;-84
2022/07/12 04:16:12;;;;;;;5.93;2.72;;;22.40;92.30;;;;;;4878964;29;20433;-82
2022/07/12 04:18:38;;;;;;;5.18;2.42;;;22.50;92.10;;;;;;4878776;29;20393;-83
2022/07/12 04:21:03;;;;;;;6.32;2.90;;;22.40;92.10;;;;;;4878281;29;20029;-83
2022/07/12 04:23:29;;;;;;;5.13;1.90;;;22.40;92.20;;;;;;4877050;29;20068;-84
2022/07/12 04:25:55;;;;;;;4.63;2.45;;;22.20;92.40;;;;;;4878601;29;20033;-83
2022/07/12 04:28:20;;;;;;;5.35;2.20;;;22.20;92.30;;;;;;4878301;29;20025;-86
2022/07/12 04:30:46;;;;;;;8.52;2.70;;;22.30;92.20;;;;;;4878296;29;20477;-87
2022/07/12 04:33:12;;;;;;;4.55;2.22;;;22.10;92.30;;;;;;4878176;29;20041;-87
2022/07/12 04:35:38;;;;;;;6.18;2.17;;;22.00;92.20;;;;;;4878516;29;20044;-86
2022/07/12 04:38:04;;;;;;;6.80;1.90;;;22.00;92.30;;;;;;4878657;29;20033;-86
2022/07/12 04:40:30;;;;;;;9.93;2.30;;;22.00;92.00;;;;;;4878251;29;20033;-86
2022/07/12 04:42:56;;;;;;;6.95;2.20;;;22.00;92.00;;;;;;4877908;29;20061;-86
2022/07/12 04:45:22;;;;;;;5.32;2.25;;;21.80;92.00;;;;;;4878454;29;20056;-85
2022/07/12 04:47:48;;;;;;;5.65;2.40;;;21.70;92.30;;;;;;4879503;29;20029;-86
2022/07/12 04:50:14;;;;;;;7.25;2.15;;;21.80;92.20;;;;;;4884168;29;20474;-86
2022/07/12 04:52:39;;;;;;;5.40;2.33;;;22.00;92.00;;;;;;4877703;29;20036;-86
2022/07/12 04:55:06;;;;;;;2.63;1.80;;;22.10;91.60;;;;;;4877902;29;20092;-86
2022/07/12 04:57:32;;;;;;;3.55;2.08;;;22.20;91.70;;;;;;4877757;29;20088;-86
2022/07/12 04:59:58;;;;;;;6.97;2.20;;;22.20;91.60;;;;;;4878281;29;20545;-86
2022/07/12 05:02:23;;;;;;;5.68;2.58;;;22.20;91.50;;;;;;4878084;29;20108;-87
2022/07/12 05:04:49;;;;;;;4.88;2.33;;;22.20;91.60;;;;;;4878701;29;20052;-86
2022/07/12 05:07:15;;;;;;;6.32;2.30;;;22.30;91.60;;;;;;4881031;29;20130;-84
2022/07/12 05:09:41;;;;;;;8.32;2.72;;;22.20;91.50;;;;;;4881498;29;20041;-84
2022/07/12 05:12:06;;;;;;;6.47;2.28;;;22.20;91.60;;;;;;4881588;29;20029;-82
2022/07/12 05:14:32;;;;;;;5.82;2.55;;;22.30;91.30;;;;;;4881745;29;20033;-83
2022/07/12 05:16:58;;;;;;;5.38;2.00;;;22.30;91.00;;;;;;4879872;29;20044;-85
2022/07/12 05:19:23;;;;;;;6.63;2.45;;;22.30;91.30;;;;;;4882182;29;20400;-85
2022/07/12 05:21:50;;;;;;;7.60;2.08;;;22.40;91.20;;;;;;4899771;29;20500;-85
2022/07/12 05:24:16;;;;;;;7.43;2.40;;;22.40;91.40;;;;;;4890611;29;20032;-85
2022/07/12 05:26:41;;;;;;;4.43;2.22;;;22.50;91.40;;;;;;4888593;29;20118;-85
2022/07/12 05:29:07;;;;;;;4.05;2.55;;;22.40;91.30;;;;;;4881613;29;20116;-86
2022/07/12 05:31:33;;;;;;;4.70;2.30;;;22.50;91.40;;;;;;4897301;29;20729;-85
2022/07/12 05:34:00;;;;;;;5.13;2.00;;;22.50;91.40;;;;;;4894077;29;20041;-84
2022/07/12 05:36:25;;;;;;;4.25;1.92;;;22.50;91.40;;;;;;4879693;29;20029;-84
2022/07/12 05:38:51;;;;;;;5.18;1.88;;;22.50;90.50;;;;;;4881097;29;20061;-84
2022/07/12 05:41:17;;;;;;;4.18;1.98;;;22.40;90.60;;;;;;4895987;29;20103;-84
2022/07/12 05:43:43;;;;;;;2.97;1.98;;;22.50;90.40;;;;;;4883037;29;20123;-85
2022/07/12 05:46:09;;;;;;;5.45;2.40;;;22.50;90.60;;;;;;4885589;29;20363;-85
2022/07/12 05:48:36;;;;;;;7.05;2.40;;;22.50;90.50;;;;;;4890684;29;20500;-86
2022/07/12 05:53:47;;;;;;;6.03;2.20;;;22.60;89.20;;;;;;4880909;29;20587;-85
2022/07/12 05:56:13;;;;;;;6.43;2.00;;;22.70;88.80;;;;;;4880202;29;20525;-85
2022/07/12 05:58:39;;;;;;;5.10;2.20;;;22.70;88.80;;;;;;4882630;29;20119;-82
2022/07/12 06:01:05;;;;;;;6.25;2.10;;;22.80;87.40;;;;;;4898433;29;20025;-87
2022/07/12 06:03:31;;;;;;;7.95;2.22;;;22.90;87.10;;;;;;4898875;29;20029;-87
2022/07/12 06:05:56;;;;;;;4.05;2.17;;;23.00;86.90;;;;;;4880182;29;20039;-87
2022/07/12 06:08:22;;;;;;;3.33;1.88;;;23.10;86.00;;;;;;4880363;29;20057;-88
2022/07/12 06:10:48;;;;;;;7.22;2.13;;;23.10;85.40;;;;;;4879073;29;20029;-86
2022/07/12 06:13:14;;;;;;;5.93;2.20;;;23.20;85.30;;;;;;4882585;29;20040;-85
2022/07/12 06:15:39;;;;;;;4.60;1.90;;;23.20;86.00;;;;;;4871747;29;20021;-84
2022/07/12 06:18:05;;;;;;;7.63;2.55;;;23.30;84.90;;;;;;4867135;29;20033;-87
2022/07/12 06:20:33;;;;;;;6.82;2.08;;;23.30;84.70;;;;;;4888212;29;20137;-87
2022/07/12 06:22:59;;;;;;;10.13;1.95;;;23.40;84.20;;;;;;4892447;29;20073;-86
2022/07/12 06:25:25;;;;;;;6.22;2.03;;;23.40;83.40;;;;;;4890826;29;20029;-85
2022/07/12 06:27:51;;;;;;;8.55;1.98;;;23.50;83.10;;;;;;4890780;29;20031;-86
2022/07/12 06:30:18;;;;;;;4.65;1.85;;;23.60;82.70;;;;;;4891407;29;20500;-85
2022/07/12 06:32:48;;;;;;;4.45;2.13;;;23.70;82.60;;;;;;4888655;29;20036;-86
2022/07/12 06:35:14;;;;;;;4.32;2.05;;;23.70;82.80;;;;;;4883357;29;20386;-86
2022/07/12 06:37:41;;;;;;;5.88;1.75;;;23.80;81.90;;;;;;4870445;29;20466;-86
2022/07/12 06:40:08;;;;;;;3.45;1.90;;;23.80;82.20;;;;;;4871174;29;20104;-86
2022/07/12 06:42:34;;;;;;;4.97;2.00;;;23.90;81.80;;;;;;4885134;29;20025;-86
2022/07/12 06:45:01;;;;;;;4.85;2.13;;;23.90;82.30;;;;;;4890924;29;20052;-87
2022/07/12 06:47:27;;;;;;;6.03;2.00;;;24.00;82.60;;;;;;4890991;29;20056;-87
2022/07/12 06:49:52;;;;;;;5.35;2.28;;;24.00;83.80;;;;;;4879294;29;20025;-87
2022/07/12 06:52:18;;;;;;;3.85;1.90;;;24.00;84.30;;;;;;4883123;29;20525;-88
2022/07/12 06:54:44;;;;;;;5.53;2.35;;;24.10;84.10;;;;;;4887261;29;20456;-88
2022/07/12 06:57:10;;;;;;;10.05;2.10;;;24.10;83.40;;;;;;4882746;29;20033;-88
2022/07/12 06:59:36;;;;;;;3.90;2.20;;;24.20;83.40;;;;;;4895515;29;20408;-88
2022/07/12 07:02:01;;;;;;;8.98;2.00;;;24.20;83.40;;;;;;4880369;29;20512;-88
2022/07/12 10:53:34;;;;;;;3.03;1.27;;;34.90;47.90;;;;;;4911852;23;20049;-84
2022/07/12 10:56:22;;;;;;;5.43;1.75;;;35.30;48.40;;;;;;4897747;29;20032;-82
2022/07/12 10:58:58;;;;;;;5.43;1.60;;;35.60;47.60;;;;;;4897611;29;20024;-83
2022/07/12 11:01:26;;;;;;;3.45;1.48;;;35.60;46.90;;;;;;4897741;29;20104;-82
2022/07/12 11:04:03;;;;;;;2.08;1.50;;;35.80;47.40;;;;;;4893021;29;20453;-84
2022/07/12 11:06:29;;;;;;;7.18;1.98;;;35.50;48.00;;;;;;4880635;29;20107;-80
2022/07/12 11:09:04;;;;;;;5.13;1.58;;;35.70;46.10;;;;;;4879195;29;20049;-80
2022/07/12 11:11:34;;;;;;;2.90;1.20;;;35.80;46.00;;;;;;4891024;29;20017;-81
2022/07/12 11:14:01;;;;;;;7.80;1.90;;;36.10;46.50;;;;;;4899176;29;20508;-81
2022/07/12 11:16:29;;;;;;;8.07;1.58;;;36.00;46.40;;;;;;4897702;29;20036;-80
2022/07/12 11:18:55;;;;;;;8.73;1.92;;;35.70;46.70;;;;;;4899173;29;20072;-81
2022/07/12 11:21:22;;;;;;;3.67;1.63;;;36.00;46.90;;;;;;4898743;29;20032;-80
2022/07/12 11:23:48;;;;;;;4.68;2.00;;;35.40;47.50;;;;;;4899098;29;20107;-80
2022/07/12 11:26:14;;;;;;;2.40;1.58;;;35.10;46.70;;;;;;4898726;29;20104;-80
2022/07/12 11:28:42;;;;;;;3.50;1.60;;;35.50;47.10;;;;;;4899028;29;20084;-80
2022/07/12 11:31:12;;;;;;;3.80;1.38;;;35.90;46.70;;;;;;4909691;29;20031;-78
2022/07/12 11:33:40;;;;;;;3.60;2.00;;;36.10;46.60;;;;;;4918107;29;20028;-80
2022/07/12 11:36:08;;;;;;;3.63;1.50;;;35.60;46.20;;;;;;4917404;29;20024;-81
2022/07/12 11:38:35;;;;;;;6.65;1.58;;;36.10;46.70;;;;;;4917423;29;20024;-81
2022/07/12 11:41:03;;;;;;;2.95;1.70;;;36.40;45.40;;;;;;4917115;29;20028;-80
2022/07/12 11:43:30;;;;;;;3.55;1.50;;;36.30;45.30;;;;;;4915737;29;20035;-81
2022/07/12 11:45:57;;;;;;;4.60;1.80;;;36.70;45.00;;;;;;4915783;29;20024;-81
2022/07/12 11:48:23;;;;;;;3.42;1.60;;;36.90;44.10;;;;;;4915695;29;20511;-80
2022/07/12 11:50:54;;;;;;;3.47;1.52;;;36.90;44.00;;;;;;4912349;29;20028;-80
2022/07/12 11:53:24;;;;;;;3.20;1.52;;;36.50;44.20;;;;;;4898041;29;20040;-80
2022/07/12 11:55:52;;;;;;;4.87;1.60;;;36.60;44.40;;;;;;4898125;29;20043;-80
2022/07/12 11:58:19;;;;;;;3.08;1.55;;;36.90;44.40;;;;;;4897690;29;20110;-81
2022/07/12 12:00:46;;;;;;;4.50;1.50;;;36.70;42.80;;;;;;4898125;29;20028;-81
2022/07/12 12:03:13;;;;;;;3.42;1.42;;;36.90;43.90;;;;;;4897708;29;20454;-81
2022/07/12 12:05:40;;;;;;;5.38;1.65;;;37.40;43.80;;;;;;4897885;29;20028;-81
2022/07/12 12:08:07;;;;;;;5.70;1.60;;;37.20;43.40;;;;;;4897672;29;20027;-80
2022/07/12 12:10:33;;;;;;;4.15;1.73;;;37.20;43.80;;;;;;4897873;29;20085;-81
2022/07/12 12:13:01;;;;;;;6.72;1.73;;;37.20;43.20;;;;;;4897222;29;20025;-81
2022/07/12 12:15:33;;;;;;;3.30;1.50;;;37.10;42.60;;;;;;4896942;29;20029;-81
2022/07/12 12:18:06;;;;;;;3.55;1.73;;;36.60;42.40;;;;;;4897682;29;20477;-80
2022/07/12 12:20:33;;;;;;;8.00;2.22;;;36.50;42.40;;;;;;4897735;29;20552;-80
2022/07/12 12:23:00;;;;;;;3.72;1.92;;;36.90;42.20;;;;;;4897442;29;20023;-80
2022/07/12 12:25:27;;;;;;;4.40;1.67;;;37.10;42.90;;;;;;4897374;29;20020;-81
2022/07/12 12:27:57;;;;;;;4.00;1.40;;;37.00;42.40;;;;;;4897284;29;20044;-80
2022/07/12 12:30:24;;;;;;;3.27;1.60;;;37.30;42.40;;;;;;4897534;29;20044;-80
2022/07/12 12:32:57;;;;;;;9.30;1.65;;;37.40;41.20;;;;;;4897539;29;20088;-81
2022/07/12 12:35:34;;;;;;;3.20;1.40;;;37.70;41.10;;;;;;4897345;29;20436;-80
2022/07/12 12:38:02;;;;;;;3.33;1.35;;;37.60;40.30;;;;;;4897329;29;20112;-80
2022/07/12 12:40:30;;;;;;;3.67;1.60;;;37.40;40.90;;;;;;4897434;29;20084;-81
2022/07/12 12:43:13;;;;;;;9.88;2.00;;;37.50;40.80;;;;;;4897426;29;20028;-81
2022/07/12 12:45:55;;;;;;;7.05;1.50;;;37.50;39.60;;;;;;4897485;29;20021;-80
2022/07/12 12:48:26;;;;;;;2.45;1.45;;;37.60;39.40;;;;;;4897094;29;20040;-81
2022/07/12 12:50:53;;;;;;;3.72;1.50;;;37.40;40.00;;;;;;4896900;29;20034;-81
2022/07/12 12:53:24;;;;;;;6.50;1.50;;;37.50;39.30;;;;;;4897286;29;20039;-81
2022/07/12 12:55:52;;;;;;;2.90;1.52;;;37.60;38.50;;;;;;4897308;29;20389;-81
2022/07/12 12:58:19;;;;;;;7.90;1.85;;;37.30;38.20;;;;;;4896962;29;20032;-80
2022/07/12 13:00:46;;;;;;;2.50;1.52;;;37.70;37.50;;;;;;4897189;29;20024;-80
2022/07/12 13:03:15;;;;;;;6.70;1.45;;;37.80;37.70;;;;;;4897184;29;20420;-80
2022/07/12 13:05:41;;;;;;;4.63;1.80;;;37.60;38.40;;;;;;4897193;29;20025;-81
2022/07/12 13:08:08;;;;;;;2.33;1.40;;;37.70;37.80;;;;;;4896973;29;20152;-81
2022/07/12 13:10:34;;;;;;;2.67;1.35;;;37.40;38.60;;;;;;4897040;29;20036;-81
2022/07/12 13:13:02;;;;;;;2.42;1.38;;;37.40;37.80;;;;;;4897057;29;20033;-81
2022/07/12 13:15:28;;;;;;;5.13;1.60;;;37.20;36.60;;;;;;4897164;29;20500;-81
2022/07/12 13:17:54;;;;;;;4.72;1.30;;;37.40;37.10;;;;;;4897157;29;20077;-81
2022/07/12 13:20:20;;;;;;;3.35;1.63;;;37.60;36.50;;;;;;4896822;29;20311;-81
2022/07/12 13:22:46;;;;;;;4.68;1.33;;;37.40;37.40;;;;;;4897078;29;20037;-81
2022/07/12 13:25:13;;;;;;;2.55;1.42;;;37.50;36.70;;;;;;4897259;29;20035;-81
2022/07/12 13:27:39;;;;;;;2.88;1.40;;;37.10;36.90;;;;;;4900834;29;20028;-81
2022/07/12 13:30:07;;;;;;;5.72;1.55;;;37.40;38.50;;;;;;4899509;29;20047;-81
2022/07/12 13:32:34;;;;;;;4.80;1.30;;;37.60;37.40;;;;;;4900680;29;20033;-81
2022/07/12 13:35:00;;;;;;;8.02;1.63;;;37.50;36.70;;;;;;4900309;29;20075;-81
2022/07/12 13:37:26;;;;;;;6.90;1.30;;;37.20;36.80;;;;;;4900418;29;20032;-81
2022/07/12 13:42:43;;;;;;;3.10;1.30;;;37.30;36.70;;;;;;4900604;29;20039;-80
2022/07/12 13:45:11;;;;;;;3.60;1.67;;;37.50;38.00;;;;;;4900345;29;20032;-80
2022/07/12 13:47:38;;;;;;;4.72;1.45;;;37.40;36.80;;;;;;4900339;29;20032;-81
2022/07/12 13:50:05;;;;;;;5.07;1.50;;;37.60;36.60;;;;;;4900135;29;20025;-80
2022/07/12 13:52:30;;;;;;;3.20;1.20;;;37.50;36.30;;;;;;4898606;29;20060;-79
2022/07/12 13:54:56;;;;;;;9.77;1.75;;;37.60;36.70;;;;;;4899625;29;20040;-81
2022/07/12 13:57:22;;;;;;;5.53;1.58;;;37.70;37.00;;;;;;4898647;29;20120;-81
2022/07/12 13:59:48;;;;;;;4.05;1.58;;;37.20;36.60;;;;;;4899688;29;20025;-81
2022/07/12 14:02:14;;;;;;;3.53;1.30;;;37.20;37.20;;;;;;4899699;29;20033;-81
2022/07/12 14:04:39;;;;;;;2.72;1.55;;;37.30;36.30;;;;;;4899878;29;20019;-85
2022/07/12 14:07:05;;;;;;;7.40;1.48;;;37.10;36.40;;;;;;4899950;29;20036;-81
2022/07/12 14:09:31;;;;;;;4.82;1.60;;;37.00;37.60;;;;;;4899200;29;20036;-94
2022/07/12 14:11:56;;;;;;;4.18;1.33;;;37.20;37.10;;;;;;4898118;29;20032;-81
2022/07/12 14:17:06;;;;;;;5.10;1.27;;;37.20;35.70;;;;;;4899789;29;20107;-81
2022/07/12 14:19:32;;;;;;;4.22;1.40;;;36.80;36.60;;;;;;4899689;29;20119;-81
2022/07/12 14:21:58;;;;;;;3.10;1.00;;;36.70;36.10;;;;;;4899010;29;20123;-81
2022/07/12 14:24:24;;;;;;;1.40;1.00;;;37.00;36.90;;;;;;4898735;29;20057;-81
2022/07/12 14:26:50;;;;;;;4.05;1.33;;;37.10;36.50;;;;;;4897915;29;20489;-81
2022/07/12 14:29:16;;;;;;;3.15;1.02;;;37.10;36.20;;;;;;4899534;29;20507;-80
2022/07/12 14:31:41;;;;;;;9.52;1.58;;;37.10;36.60;;;;;;4899707;29;20028;-80
2022/07/12 14:34:07;;;;;;;2.08;0.95;;;37.10;36.90;;;;;;4899092;29;20564;-80
2022/07/12 14:36:32;;;;;;;4.45;1.13;;;37.00;36.80;;;;;;4899423;29;20028;-80
2022/07/12 14:38:58;;;;;;;4.30;1.25;;;37.00;36.80;;;;;;4898665;29;20112;-79
2022/07/12 14:41:25;;;;;;;2.90;1.55;;;36.90;35.90;;;;;;4898984;29;20032;-80
2022/07/12 14:43:50;;;;;;;3.05;1.60;;;36.70;36.90;;;;;;4899469;29;20028;-80
2022/07/12 14:46:16;;;;;;;5.22;1.30;;;36.80;36.80;;;;;;4898889;29;20032;-80
2022/07/12 14:48:43;;;;;;;5.15;1.10;;;36.90;36.50;;;;;;4898778;29;20396;-80
2022/07/12 14:51:09;;;;;;;5.97;1.23;;;37.00;36.40;;;;;;4898855;29;20065;-80
2022/07/12 14:53:35;;;;;;;5.28;1.05;;;36.90;37.20;;;;;;4898565;29;20025;-80
2022/07/12 14:56:01;;;;;;;3.45;1.10;;;36.80;38.20;;;;;;4898820;29;20028;-80
2022/07/12 14:58:29;;;;;;;2.78;1.40;;;36.70;37.40;;;;;;4898710;29;20029;-80
2022/07/12 15:00:56;;;;;;;2.72;1.08;;;36.70;37.60;;;;;;4898648;29;20032;-79
2022/07/12 15:03:21;;;;;;;5.50;1.40;;;37.00;38.50;;;;;;4898511;29;20104;-80
2022/07/12 15:05:47;;;;;;;3.97;1.40;;;36.90;37.60;;;;;;4898602;29;20513;-80
2022/07/12 15:08:13;;;;;;;8.55;1.30;;;36.80;38.50;;;;;;4898534;29;20484;-80
2022/07/12 15:10:38;;;;;;;12.68;1.52;;;36.90;38.10;;;;;;4898931;29;20108;-80
2022/07/12 15:13:05;;;;;;;4.60;1.10;;;36.90;38.20;;;;;;4898333;29;20121;-79
2022/07/12 15:15:30;;;;;;;2.72;1.30;;;36.70;37.40;;;;;;4898494;29;20033;-79
2022/07/12 15:17:56;;;;;;;4.95;1.27;;;36.30;37.80;;;;;;4898868;29;20557;-82
2022/07/12 15:20:22;;;;;;;2.65;1.30;;;36.30;37.70;;;;;;4898149;29;20025;-79
2022/07/12 15:22:47;;;;;;;2.75;1.35;;;36.20;37.40;;;;;;4898101;29;20024;-83
2022/07/12 15:25:13;;;;;;;3.95;1.17;;;36.20;37.40;;;;;;4897835;29;20032;-82
2022/07/12 15:27:39;;;;;;;2.88;1.15;;;36.40;37.00;;;;;;4898461;29;20104;-82
2022/07/12 15:30:05;;;;;;;2.00;1.10;;;36.40;36.80;;;;;;4898120;29;20039;-80
2022/07/12 15:32:31;;;;;;;3.42;1.23;;;36.30;35.10;;;;;;4898220;29;20485;-80
2022/07/12 15:34:57;;;;;;;2.50;1.30;;;36.20;35.80;;;;;;4898012;29;20046;-79
2022/07/12 15:37:22;;;;;;;3.35;1.20;;;36.30;34.90;;;;;;4896410;29;20058;-81
2022/07/12 15:39:48;;;;;;;1.73;1.30;;;36.20;35.30;;;;;;4897827;29;20120;-82
2022/07/12 15:42:14;;;;;;;4.10;0.85;;;36.20;34.70;;;;;;4897683;29;20433;-80
2022/07/12 15:44:42;;;;;;;3.67;1.20;;;36.30;32.50;;;;;;4898503;29;20079;-79
2022/07/12 15:47:13;;;;;;;2.38;0.98;;;36.20;33.80;;;;;;4897966;29;20020;-80
2022/07/12 15:49:39;;;;;;;1.85;0.90;;;36.10;32.60;;;;;;4896820;29;20056;-79
2022/07/12 15:54:49;;;;;;;2.65;0.60;;;36.10;31.50;;;;;;4897874;29;20184;-79
2022/07/12 15:57:16;;;;;;;6.70;1.00;;;36.20;31.00;;;;;;4897750;29;20494;-79
2022/07/12 15:59:42;;;;;;;3.45;0.80;;;36.20;30.40;;;;;;4897501;29;20516;-79
2022/07/12 16:02:08;;;;;;;2.88;1.25;;;36.20;31.70;;;;;;4897635;29;20465;-80
2022/07/12 16:04:35;;;;;;;7.18;1.05;;;36.30;33.20;;;;;;4897085;29;20035;-80
2022/07/12 16:07:02;;;;;;;2.55;1.13;;;36.10;33.20;;;;;;4897621;29;20071;-79
2022/07/12 16:09:28;;;;;;;6.45;1.27;;;36.10;33.20;;;;;;4897393;29;20036;-79
2022/07/12 16:11:55;;;;;;;2.42;1.10;;;36.00;34.30;;;;;;4897856;29;20574;-80
2022/07/12 16:14:21;;;;;;;2.42;1.00;;;36.00;36.00;;;;;;4897339;29;20135;-82
2022/07/12 16:16:47;;;;;;;2.45;1.17;;;36.10;34.80;;;;;;4897295;29;20032;-81
2022/07/12 16:19:13;;;;;;;1.77;1.15;;;36.10;33.80;;;;;;4896653;29;20887;-81
2022/07/12 16:21:39;;;;;;;1.77;0.90;;;36.10;33.60;;;;;;4897227;29;20115;-80
2022/07/12 16:24:05;;;;;;;3.38;1.10;;;36.10;35.00;;;;;;4892474;29;20049;-80
2022/07/12 16:26:31;;;;;;;2.30;1.27;;;36.00;34.50;;;;;;4892860;29;20024;-80
2022/07/12 16:28:57;;;;;;;3.83;1.13;;;36.00;35.10;;;;;;4895841;29;20615;-80
2022/07/12 16:31:23;;;;;;;3.80;1.10;;;35.90;35.40;;;;;;4895893;29;20036;-80
2022/07/12 16:33:49;;;;;;;3.92;1.05;;;36.00;34.90;;;;;;4894651;29;20016;-79
2022/07/12 16:36:15;;;;;;;1.65;0.95;;;36.00;34.10;;;;;;4895334;29;20055;-79
2022/07/12 16:38:41;;;;;;;3.20;1.02;;;35.80;34.90;;;;;;4896201;29;20056;-79
2022/07/12 16:41:07;;;;;;;4.15;1.00;;;35.90;36.10;;;;;;4895977;29;20070;-79
2022/07/12 16:43:33;;;;;;;5.15;1.13;;;35.90;35.70;;;;;;4895499;29;20036;-79
2022/07/12 16:45:59;;;;;;;3.90;1.38;;;35.90;36.10;;;;;;4903348;29;20025;-79